sensor_id;sensor_type;location;lat;lon;timestamp;P1;durP1;ratioP1;P2;durP2;ratioP2
41167;SDS011;26906;45.658;9.272;2023-02-28T06:34:23;16.15;;;12.10;;
41167;SDS011;26906;45.658;9.272;2023-02-28T06:36:49;19.80;;;12.63;;
41167;SDS011;26906;45.658;9.272;2023-02-28T06:39:16;18.45;;;12.45;;
41167;SDS011;26906;45.658;9.272;2023-02-28T06:41:45;18.20;;;12.20;;
41167;SDS011;26906;45.658;9.272;2023-02-28T06:44:16;16.23;;;12.60;;
41167;SDS011;26906;45.658;9.272;2023-02-28T06:46:43;17.98;;;12.98;;
41167;SDS011;26906;45.658;9.272;2023-02-28T06:49:10;21.27;;;13.30;;
41167;SDS011;26906;45.658;9.272;2023-02-28T06:51:37;18.17;;;12.25;;
41167;SDS011;26906;45.658;9.272;2023-02-28T06:54:04;17.35;;;12.98;;
41167;SDS011;26906;45.658;9.272;2023-02-28T06:56:30;20.67;;;13.27;;
41167;SDS011;26906;45.658;9.272;2023-02-28T06:58:56;20.38;;;12.90;;
41167;SDS011;26906;45.658;9.272;2023-02-28T07:01:22;18.73;;;13.23;;
41167;SDS011;26906;45.658;9.272;2023-02-28T07:03:54;18.55;;;12.95;;
41167;SDS011;26906;45.658;9.272;2023-02-28T07:06:20;19.20;;;13.10;;
41167;SDS011;26906;45.658;9.272;2023-02-28T07:08:50;17.63;;;12.95;;
41167;SDS011;26906;45.658;9.272;2023-02-28T07:11:18;18.63;;;13.05;;
41167;SDS011;26906;45.658;9.272;2023-02-28T07:13:44;19.45;;;13.45;;
41167;SDS011;26906;45.658;9.272;2023-02-28T07:16:11;18.98;;;12.18;;
41167;SDS011;26906;45.658;9.272;2023-02-28T07:18:37;16.80;;;13.25;;
41167;SDS011;26906;45.658;9.272;2023-02-28T07:21:05;17.90;;;12.75;;
41167;SDS011;26906;45.658;9.272;2023-02-28T07:23:33;25.80;;;17.50;;
41167;SDS011;26906;45.658;9.272;2023-02-28T07:25:59;17.35;;;12.40;;
41167;SDS011;26906;45.658;9.272;2023-02-28T07:28:25;19.35;;;12.45;;
41167;SDS011;26906;45.658;9.272;2023-02-28T07:30:51;21.35;;;13.10;;
41167;SDS011;26906;45.658;9.272;2023-02-28T07:33:17;19.05;;;13.13;;
41167;SDS011;26906;45.658;9.272;2023-02-28T07:35:43;21.60;;;14.20;;
41167;SDS011;26906;45.658;9.272;2023-02-28T07:38:08;18.52;;;12.60;;
41167;SDS011;26906;45.658;9.272;2023-02-28T07:40:34;22.73;;;13.65;;
41167;SDS011;26906;45.658;9.272;2023-02-28T07:43:02;20.58;;;13.65;;
41167;SDS011;26906;45.658;9.272;2023-02-28T07:45:28;23.73;;;13.15;;
41167;SDS011;26906;45.658;9.272;2023-02-28T07:47:54;18.35;;;13.30;;
41167;SDS011;26906;45.658;9.272;2023-02-28T07:50:21;19.95;;;13.50;;
41167;SDS011;26906;45.658;9.272;2023-02-28T07:52:47;18.92;;;13.73;;
41167;SDS011;26906;45.658;9.272;2023-02-28T07:55:12;24.67;;;13.40;;
41167;SDS011;26906;45.658;9.272;2023-02-28T07:57:39;22.27;;;13.57;;
41167;SDS011;26906;45.658;9.272;2023-02-28T08:00:06;20.73;;;13.38;;
41167;SDS011;26906;45.658;9.272;2023-02-28T08:02:39;18.75;;;14.40;;
41167;SDS011;26906;45.658;9.272;2023-02-28T08:05:05;18.23;;;13.45;;
41167;SDS011;26906;45.658;9.272;2023-02-28T08:07:34;19.75;;;14.30;;
41167;SDS011;26906;45.658;9.272;2023-02-28T08:10:00;23.08;;;13.82;;
41167;SDS011;26906;45.658;9.272;2023-02-28T08:12:26;19.67;;;12.85;;
41167;SDS011;26906;45.658;9.272;2023-02-28T08:14:52;27.42;;;13.85;;
41167;SDS011;26906;45.658;9.272;2023-02-28T08:17:17;19.05;;;13.55;;
41167;SDS011;26906;45.658;9.272;2023-02-28T08:19:46;20.75;;;13.10;;
41167;SDS011;26906;45.658;9.272;2023-02-28T08:22:12;17.80;;;12.90;;
41167;SDS011;26906;45.658;9.272;2023-02-28T08:24:38;21.48;;;12.95;;
41167;SDS011;26906;45.658;9.272;2023-02-28T08:27:06;21.27;;;13.32;;
41167;SDS011;26906;45.658;9.272;2023-02-28T08:29:32;20.05;;;13.35;;
41167;SDS011;26906;45.658;9.272;2023-02-28T08:31:57;19.75;;;13.45;;
41167;SDS011;26906;45.658;9.272;2023-02-28T08:34:23;18.52;;;14.15;;
41167;SDS011;26906;45.658;9.272;2023-02-28T08:36:49;18.55;;;13.30;;
41167;SDS011;26906;45.658;9.272;2023-02-28T08:39:15;21.05;;;13.25;;
41167;SDS011;26906;45.658;9.272;2023-02-28T08:41:41;20.00;;;13.35;;
41167;SDS011;26906;45.658;9.272;2023-02-28T08:44:07;20.90;;;13.43;;
41167;SDS011;26906;45.658;9.272;2023-02-28T08:46:33;18.67;;;13.77;;
41167;SDS011;26906;45.658;9.272;2023-02-28T08:48:59;19.40;;;13.13;;
41167;SDS011;26906;45.658;9.272;2023-02-28T08:51:26;22.77;;;13.27;;
41167;SDS011;26906;45.658;9.272;2023-02-28T08:53:54;26.00;;;13.48;;
41167;SDS011;26906;45.658;9.272;2023-02-28T08:56:21;18.10;;;13.27;;
41167;SDS011;26906;45.658;9.272;2023-02-28T08:58:47;21.17;;;13.40;;
41167;SDS011;26906;45.658;9.272;2023-02-28T09:01:16;20.08;;;14.07;;
41167;SDS011;26906;45.658;9.272;2023-02-28T09:03:47;21.60;;;14.00;;
41167;SDS011;26906;45.658;9.272;2023-02-28T09:06:14;21.17;;;14.90;;
41167;SDS011;26906;45.658;9.272;2023-02-28T09:08:41;20.63;;;15.10;;
41167;SDS011;26906;45.658;9.272;2023-02-28T09:11:07;20.23;;;15.27;;
41167;SDS011;26906;45.658;9.272;2023-02-28T09:13:34;20.50;;;14.57;;
41167;SDS011;26906;45.658;9.272;2023-02-28T09:16:01;22.13;;;14.02;;
41167;SDS011;26906;45.658;9.272;2023-02-28T09:18:28;21.83;;;14.80;;
41167;SDS011;26906;45.658;9.272;2023-02-28T09:20:54;23.77;;;14.65;;
41167;SDS011;26906;45.658;9.272;2023-02-28T09:23:23;21.45;;;14.68;;
41167;SDS011;26906;45.658;9.272;2023-02-28T09:25:50;20.92;;;14.38;;
41167;SDS011;26906;45.658;9.272;2023-02-28T09:28:17;24.35;;;13.57;;
41167;SDS011;26906;45.658;9.272;2023-02-28T09:30:44;21.75;;;13.90;;
41167;SDS011;26906;45.658;9.272;2023-02-28T09:33:12;19.83;;;14.38;;
41167;SDS011;26906;45.658;9.272;2023-02-28T09:35:39;19.52;;;14.73;;
41167;SDS011;26906;45.658;9.272;2023-02-28T09:38:08;18.42;;;14.35;;
41167;SDS011;26906;45.658;9.272;2023-02-28T09:40:36;22.63;;;13.75;;
41167;SDS011;26906;45.658;9.272;2023-02-28T09:43:12;16.60;;;13.52;;
41167;SDS011;26906;45.658;9.272;2023-02-28T09:45:40;20.25;;;14.18;;
41167;SDS011;26906;45.658;9.272;2023-02-28T09:48:23;15.90;;;13.23;;
41167;SDS011;26906;45.658;9.272;2023-02-28T09:51:05;21.00;;;13.50;;
41167;SDS011;26906;45.658;9.272;2023-02-28T09:53:38;17.98;;;14.00;;
41167;SDS011;26906;45.658;9.272;2023-02-28T10:01:29;16.38;;;13.55;;
41167;SDS011;26906;45.658;9.272;2023-02-28T10:04:03;17.85;;;14.18;;
41167;SDS011;26906;45.658;9.272;2023-02-28T10:06:48;21.25;;;14.25;;
41167;SDS011;26906;45.658;9.272;2023-02-28T10:09:25;20.80;;;14.88;;
41167;SDS011;26906;45.658;9.272;2023-02-28T10:11:56;17.98;;;14.23;;
41167;SDS011;26906;45.658;9.272;2023-02-28T10:14:32;20.30;;;15.32;;
41167;SDS011;26906;45.658;9.272;2023-02-28T10:17:01;19.73;;;14.00;;
41167;SDS011;26906;45.658;9.272;2023-02-28T10:25:15;21.23;;;14.23;;
41167;SDS011;26906;45.658;9.272;2023-02-28T10:27:44;21.75;;;14.82;;
41167;SDS011;26906;45.658;9.272;2023-02-28T10:30:11;20.38;;;14.38;;
41167;SDS011;26906;45.658;9.272;2023-02-28T10:32:38;19.45;;;14.05;;
41167;SDS011;26906;45.658;9.272;2023-02-28T10:37:37;20.40;;;15.52;;
41167;SDS011;26906;45.658;9.272;2023-02-28T10:40:06;19.20;;;15.23;;
41167;SDS011;26906;45.658;9.272;2023-02-28T10:43:18;18.98;;;14.63;;
41167;SDS011;26906;45.658;9.272;2023-02-28T10:45:53;19.00;;;13.90;;
41167;SDS011;26906;45.658;9.272;2023-02-28T10:51:08;22.77;;;14.63;;
41167;SDS011;26906;45.658;9.272;2023-02-28T10:53:52;23.77;;;15.57;;
41167;SDS011;26906;45.658;9.272;2023-02-28T10:56:23;20.80;;;14.97;;
41167;SDS011;26906;45.658;9.272;2023-02-28T10:58:52;19.75;;;14.57;;
41167;SDS011;26906;45.658;9.272;2023-02-28T11:03:55;21.30;;;15.02;;
41167;SDS011;26906;45.658;9.272;2023-02-28T11:06:23;19.38;;;13.98;;
41167;SDS011;26906;45.658;9.272;2023-02-28T11:09:15;17.27;;;14.02;;
41167;SDS011;26906;45.658;9.272;2023-02-28T11:11:52;16.13;;;13.40;;
41167;SDS011;26906;45.658;9.272;2023-02-28T11:14:24;18.02;;;14.55;;
41167;SDS011;26906;45.658;9.272;2023-02-28T11:16:52;19.17;;;14.93;;
41167;SDS011;26906;45.658;9.272;2023-02-28T11:19:23;20.52;;;14.65;;
41167;SDS011;26906;45.658;9.272;2023-02-28T11:21:55;21.85;;;14.75;;
41167;SDS011;26906;45.658;9.272;2023-02-28T11:24:37;19.67;;;13.88;;
41167;SDS011;26906;45.658;9.272;2023-02-28T11:27:24;20.15;;;14.68;;
41167;SDS011;26906;45.658;9.272;2023-02-28T11:30:00;19.33;;;14.38;;
41167;SDS011;26906;45.658;9.272;2023-02-28T11:32:26;22.10;;;14.98;;
41167;SDS011;26906;45.658;9.272;2023-02-28T11:37:36;19.05;;;14.68;;
41167;SDS011;26906;45.658;9.272;2023-02-28T11:40:05;17.48;;;14.20;;
41167;SDS011;26906;45.658;9.272;2023-02-28T11:53:46;17.50;;;14.60;;
41167;SDS011;26906;45.658;9.272;2023-02-28T11:56:31;17.42;;;14.52;;
41167;SDS011;26906;45.658;9.272;2023-02-28T11:59:22;22.08;;;16.05;;
41167;SDS011;26906;45.658;9.272;2023-02-28T12:10:27;21.95;;;15.65;;
41167;SDS011;26906;45.658;9.272;2023-02-28T12:16:03;20.77;;;15.02;;
41167;SDS011;26906;45.658;9.272;2023-02-28T12:18:51;24.23;;;14.48;;
41167;SDS011;26906;45.658;9.272;2023-02-28T12:26:44;22.85;;;16.27;;
41167;SDS011;26906;45.658;9.272;2023-02-28T12:29:24;27.60;;;17.92;;
41167;SDS011;26906;45.658;9.272;2023-02-28T12:34:41;22.58;;;16.45;;
41167;SDS011;26906;45.658;9.272;2023-02-28T12:37:16;23.85;;;15.98;;
41167;SDS011;26906;45.658;9.272;2023-02-28T12:39:49;19.42;;;15.05;;
41167;SDS011;26906;45.658;9.272;2023-02-28T12:42:28;17.95;;;14.68;;
41167;SDS011;26906;45.658;9.272;2023-02-28T12:45:31;22.73;;;15.77;;
41167;SDS011;26906;45.658;9.272;2023-02-28T12:48:06;17.88;;;14.63;;
41167;SDS011;26906;45.658;9.272;2023-02-28T12:50:38;18.27;;;15.43;;
41167;SDS011;26906;45.658;9.272;2023-02-28T12:58:56;18.15;;;14.75;;
41167;SDS011;26906;45.658;9.272;2023-02-28T13:01:30;17.70;;;15.05;;
41167;SDS011;26906;45.658;9.272;2023-02-28T13:07:00;18.90;;;15.02;;
41167;SDS011;26906;45.658;9.272;2023-02-28T13:09:31;17.98;;;15.10;;
41167;SDS011;26906;45.658;9.272;2023-02-28T13:11:57;22.65;;;16.25;;
41167;SDS011;26906;45.658;9.272;2023-02-28T13:23:02;18.40;;;15.00;;
41167;SDS011;26906;45.658;9.272;2023-02-28T13:27:59;21.80;;;15.13;;
41167;SDS011;26906;45.658;9.272;2023-02-28T13:36:31;17.13;;;14.93;;
41167;SDS011;26906;45.658;9.272;2023-02-28T13:39:02;17.98;;;14.93;;
41167;SDS011;26906;45.658;9.272;2023-02-28T13:41:48;36.78;;;17.45;;
41167;SDS011;26906;45.658;9.272;2023-02-28T13:44:15;20.90;;;15.45;;
41167;SDS011;26906;45.658;9.272;2023-02-28T13:57:24;19.15;;;14.70;;
41167;SDS011;26906;45.658;9.272;2023-02-28T14:05:43;17.10;;;14.57;;
41167;SDS011;26906;45.658;9.272;2023-02-28T14:08:19;19.40;;;14.68;;
41167;SDS011;26906;45.658;9.272;2023-02-28T14:10:49;18.77;;;13.55;;
41167;SDS011;26906;45.658;9.272;2023-02-28T14:16:21;17.40;;;13.43;;
41167;SDS011;26906;45.658;9.272;2023-02-28T14:18:59;17.42;;;13.73;;
41167;SDS011;26906;45.658;9.272;2023-02-28T14:27:21;16.05;;;12.82;;
41167;SDS011;26906;45.658;9.272;2023-02-28T14:30:05;17.92;;;14.07;;
41167;SDS011;26906;45.658;9.272;2023-02-28T14:38:14;19.00;;;13.15;;
41167;SDS011;26906;45.658;9.272;2023-02-28T14:40:46;18.67;;;13.13;;
41167;SDS011;26906;45.658;9.272;2023-02-28T14:43:22;16.30;;;14.07;;
41167;SDS011;26906;45.658;9.272;2023-02-28T14:45:50;14.93;;;12.45;;
41167;SDS011;26906;45.658;9.272;2023-02-28T14:48:21;17.17;;;13.88;;
41167;SDS011;26906;45.658;9.272;2023-02-28T14:50:52;17.23;;;13.35;;
41167;SDS011;26906;45.658;9.272;2023-02-28T14:53:25;18.13;;;14.55;;
41167;SDS011;26906;45.658;9.272;2023-02-28T14:55:53;17.45;;;14.07;;
41167;SDS011;26906;45.658;9.272;2023-02-28T14:58:23;18.33;;;13.65;;
41167;SDS011;26906;45.658;9.272;2023-02-28T15:00:50;19.85;;;14.23;;
41167;SDS011;26906;45.658;9.272;2023-02-28T15:03:19;20.45;;;14.82;;
41167;SDS011;26906;45.658;9.272;2023-02-28T15:06:00;18.38;;;15.48;;
41167;SDS011;26906;45.658;9.272;2023-02-28T15:08:43;19.60;;;13.70;;
41167;SDS011;26906;45.658;9.272;2023-02-28T15:11:19;19.92;;;15.20;;
41167;SDS011;26906;45.658;9.272;2023-02-28T15:13:52;24.67;;;15.07;;
41167;SDS011;26906;45.658;9.272;2023-02-28T15:16:44;20.27;;;14.60;;
41167;SDS011;26906;45.658;9.272;2023-02-28T15:19:16;17.52;;;14.27;;
41167;SDS011;26906;45.658;9.272;2023-02-28T15:21:48;22.63;;;14.82;;
41167;SDS011;26906;45.658;9.272;2023-02-28T15:27:07;17.92;;;14.55;;
41167;SDS011;26906;45.658;9.272;2023-02-28T15:29:59;18.80;;;14.98;;
41167;SDS011;26906;45.658;9.272;2023-02-28T15:32:34;25.80;;;14.65;;
41167;SDS011;26906;45.658;9.272;2023-02-28T15:35:18;20.45;;;15.15;;
41167;SDS011;26906;45.658;9.272;2023-02-28T15:37:52;21.92;;;14.75;;
41167;SDS011;26906;45.658;9.272;2023-02-28T15:40:26;21.45;;;15.32;;
41167;SDS011;26906;45.658;9.272;2023-02-28T15:48:12;18.13;;;14.45;;
41167;SDS011;26906;45.658;9.272;2023-02-28T15:50:51;20.08;;;14.13;;
41167;SDS011;26906;45.658;9.272;2023-02-28T15:53:23;21.15;;;15.60;;
41167;SDS011;26906;45.658;9.272;2023-02-28T15:56:03;24.00;;;14.95;;
41167;SDS011;26906;45.658;9.272;2023-02-28T15:58:37;18.40;;;15.10;;
41167;SDS011;26906;45.658;9.272;2023-02-28T16:01:08;21.95;;;15.30;;
41167;SDS011;26906;45.658;9.272;2023-02-28T16:03:45;21.60;;;15.02;;
41167;SDS011;26906;45.658;9.272;2023-02-28T16:08:42;22.08;;;15.65;;
41167;SDS011;26906;45.658;9.272;2023-02-28T16:11:08;25.33;;;14.93;;
41167;SDS011;26906;45.658;9.272;2023-02-28T16:13:35;21.85;;;14.55;;
41167;SDS011;26906;45.658;9.272;2023-02-28T16:16:01;20.50;;;15.05;;
41167;SDS011;26906;45.658;9.272;2023-02-28T16:18:27;20.27;;;14.82;;
41167;SDS011;26906;45.658;9.272;2023-02-28T16:20:55;20.17;;;14.38;;
41167;SDS011;26906;45.658;9.272;2023-02-28T16:23:21;17.85;;;14.38;;
41167;SDS011;26906;45.658;9.272;2023-02-28T16:25:47;19.55;;;15.10;;
41167;SDS011;26906;45.658;9.272;2023-02-28T16:28:17;18.30;;;15.00;;
41167;SDS011;26906;45.658;9.272;2023-02-28T16:30:53;18.00;;;14.73;;
41167;SDS011;26906;45.658;9.272;2023-02-28T16:33:20;22.08;;;15.43;;
41167;SDS011;26906;45.658;9.272;2023-02-28T16:35:46;19.60;;;15.73;;
41167;SDS011;26906;45.658;9.272;2023-02-28T16:38:11;20.23;;;15.40;;
41167;SDS011;26906;45.658;9.272;2023-02-28T16:40:37;20.02;;;16.38;;
41167;SDS011;26906;45.658;9.272;2023-02-28T16:43:07;21.98;;;16.30;;
41167;SDS011;26906;45.658;9.272;2023-02-28T16:45:44;25.63;;;16.77;;
41167;SDS011;26906;45.658;9.272;2023-02-28T16:48:11;24.80;;;17.23;;
41167;SDS011;26906;45.658;9.272;2023-02-28T16:50:39;83.68;;;47.17;;
41167;SDS011;26906;45.658;9.272;2023-02-28T16:53:04;54.70;;;30.48;;
41167;SDS011;26906;45.658;9.272;2023-02-28T16:55:30;48.28;;;31.35;;
41167;SDS011;26906;45.658;9.272;2023-02-28T16:57:57;77.32;;;43.40;;
41167;SDS011;26906;45.658;9.272;2023-02-28T17:00:24;48.50;;;29.98;;
41167;SDS011;26906;45.658;9.272;2023-02-28T17:02:55;37.35;;;24.73;;
41167;SDS011;26906;45.658;9.272;2023-02-28T17:05:24;38.20;;;24.17;;
41167;SDS011;26906;45.658;9.272;2023-02-28T17:07:52;27.00;;;18.70;;
41167;SDS011;26906;45.658;9.272;2023-02-28T17:10:24;23.75;;;16.88;;
41167;SDS011;26906;45.658;9.272;2023-02-28T17:12:51;22.52;;;16.50;;
41167;SDS011;26906;45.658;9.272;2023-02-28T17:15:18;25.38;;;16.73;;
41167;SDS011;26906;45.658;9.272;2023-02-28T17:17:45;23.20;;;17.17;;
41167;SDS011;26906;45.658;9.272;2023-02-28T17:20:12;27.00;;;17.05;;
41167;SDS011;26906;45.658;9.272;2023-02-28T17:22:41;24.77;;;17.05;;
41167;SDS011;26906;45.658;9.272;2023-02-28T17:25:08;26.98;;;18.33;;
41167;SDS011;26906;45.658;9.272;2023-02-28T17:27:35;22.15;;;15.98;;
41167;SDS011;26906;45.658;9.272;2023-02-28T17:30:03;27.02;;;16.20;;
41167;SDS011;26906;45.658;9.272;2023-02-28T17:32:40;21.95;;;16.10;;
41167;SDS011;26906;45.658;9.272;2023-02-28T17:35:06;23.25;;;16.50;;
41167;SDS011;26906;45.658;9.272;2023-02-28T17:37:32;24.70;;;16.50;;
41167;SDS011;26906;45.658;9.272;2023-02-28T17:39:58;25.30;;;17.27;;
41167;SDS011;26906;45.658;9.272;2023-02-28T17:42:23;36.20;;;17.52;;
41167;SDS011;26906;45.658;9.272;2023-02-28T17:44:49;23.85;;;17.23;;
41167;SDS011;26906;45.658;9.272;2023-02-28T17:47:15;25.23;;;18.27;;
41167;SDS011;26906;45.658;9.272;2023-02-28T17:49:40;30.65;;;19.83;;
41167;SDS011;26906;45.658;9.272;2023-02-28T17:52:07;25.52;;;18.58;;
41167;SDS011;26906;45.658;9.272;2023-02-28T17:54:33;32.28;;;21.92;;
41167;SDS011;26906;45.658;9.272;2023-02-28T17:56:58;28.95;;;20.70;;
41167;SDS011;26906;45.658;9.272;2023-02-28T17:59:25;35.42;;;21.25;;
41167;SDS011;26906;45.658;9.272;2023-02-28T18:01:58;40.40;;;25.73;;
41167;SDS011;26906;45.658;9.272;2023-02-28T18:04:24;44.95;;;30.05;;
41167;SDS011;26906;45.658;9.272;2023-02-28T18:06:52;38.92;;;27.20;;
41167;SDS011;26906;45.658;9.272;2023-02-28T18:09:19;37.95;;;24.58;;
41167;SDS011;26906;45.658;9.272;2023-02-28T18:11:52;31.95;;;23.38;;
41167;SDS011;26906;45.658;9.272;2023-02-28T18:14:20;37.55;;;26.20;;
41167;SDS011;26906;45.658;9.272;2023-02-28T18:16:48;38.75;;;26.95;;
41167;SDS011;26906;45.658;9.272;2023-02-28T18:19:14;40.75;;;28.52;;
41167;SDS011;26906;45.658;9.272;2023-02-28T18:21:42;40.65;;;27.25;;
41167;SDS011;26906;45.658;9.272;2023-02-28T18:24:08;35.17;;;26.00;;
41167;SDS011;26906;45.658;9.272;2023-02-28T18:26:35;35.70;;;25.52;;
41167;SDS011;26906;45.658;9.272;2023-02-28T18:29:02;34.78;;;23.73;;
41167;SDS011;26906;45.658;9.272;2023-02-28T18:31:28;31.85;;;23.75;;
41167;SDS011;26906;45.658;9.272;2023-02-28T18:33:56;39.72;;;26.02;;
41167;SDS011;26906;45.658;9.272;2023-02-28T18:36:23;35.13;;;23.77;;
41167;SDS011;26906;45.658;9.272;2023-02-28T18:38:50;36.33;;;24.92;;
41167;SDS011;26906;45.658;9.272;2023-02-28T18:41:17;35.05;;;24.40;;
41167;SDS011;26906;45.658;9.272;2023-02-28T18:43:47;34.83;;;23.67;;
41167;SDS011;26906;45.658;9.272;2023-02-28T18:46:15;37.20;;;25.90;;
41167;SDS011;26906;45.658;9.272;2023-02-28T18:48:42;37.30;;;25.90;;
41167;SDS011;26906;45.658;9.272;2023-02-28T18:51:30;37.58;;;24.58;;
41167;SDS011;26906;45.658;9.272;2023-02-28T18:53:55;38.40;;;23.77;;
41167;SDS011;26906;45.658;9.272;2023-02-28T18:56:21;36.00;;;22.85;;
41167;SDS011;26906;45.658;9.272;2023-02-28T18:58:48;33.38;;;23.15;;
41167;SDS011;26906;45.658;9.272;2023-02-28T19:01:19;34.13;;;24.58;;
41167;SDS011;26906;45.658;9.272;2023-02-28T19:03:47;40.92;;;23.73;;
41167;SDS011;26906;45.658;9.272;2023-02-28T19:06:15;32.53;;;23.70;;
41167;SDS011;26906;45.658;9.272;2023-02-28T19:08:41;36.00;;;22.67;;
41167;SDS011;26906;45.658;9.272;2023-02-28T19:13:34;29.02;;;20.95;;
41167;SDS011;26906;45.658;9.272;2023-02-28T19:16:00;29.40;;;21.67;;
41167;SDS011;26906;45.658;9.272;2023-02-28T19:18:26;31.58;;;20.92;;
41167;SDS011;26906;45.658;9.272;2023-02-28T19:20:54;34.17;;;21.42;;
41167;SDS011;26906;45.658;9.272;2023-02-28T19:23:19;36.47;;;22.33;;
41167;SDS011;26906;45.658;9.272;2023-02-28T19:25:49;34.67;;;23.27;;
41167;SDS011;26906;45.658;9.272;2023-02-28T19:28:42;33.92;;;22.70;;
41167;SDS011;26906;45.658;9.272;2023-02-28T19:31:19;33.80;;;23.95;;
41167;SDS011;26906;45.658;9.272;2023-02-28T19:33:46;34.92;;;22.98;;
41167;SDS011;26906;45.658;9.272;2023-02-28T19:36:13;36.00;;;24.33;;
41167;SDS011;26906;45.658;9.272;2023-02-28T19:38:39;33.72;;;23.25;;
41167;SDS011;26906;45.658;9.272;2023-02-28T19:41:09;30.33;;;20.95;;
41167;SDS011;26906;45.658;9.272;2023-02-28T19:43:36;29.25;;;20.23;;
41167;SDS011;26906;45.658;9.272;2023-02-28T19:46:02;31.33;;;23.08;;
41167;SDS011;26906;45.658;9.272;2023-02-28T19:48:39;32.92;;;22.17;;
41167;SDS011;26906;45.658;9.272;2023-02-28T19:51:10;33.67;;;23.33;;
41167;SDS011;26906;45.658;9.272;2023-02-28T19:53:38;35.05;;;23.95;;
41167;SDS011;26906;45.658;9.272;2023-02-28T19:56:04;29.95;;;21.25;;
41167;SDS011;26906;45.658;9.272;2023-02-28T19:58:34;30.17;;;21.00;;
41167;SDS011;26906;45.658;9.272;2023-02-28T20:01:05;32.45;;;22.45;;
41167;SDS011;26906;45.658;9.272;2023-02-28T20:03:41;32.80;;;21.38;;
41167;SDS011;26906;45.658;9.272;2023-02-28T20:06:10;32.20;;;22.33;;
41167;SDS011;26906;45.658;9.272;2023-02-28T20:08:39;31.35;;;21.77;;
41167;SDS011;26906;45.658;9.272;2023-02-28T20:11:06;31.45;;;21.65;;
41167;SDS011;26906;45.658;9.272;2023-02-28T20:13:34;31.27;;;22.15;;
41167;SDS011;26906;45.658;9.272;2023-02-28T20:16:01;29.75;;;21.75;;
41167;SDS011;26906;45.658;9.272;2023-02-28T20:18:30;34.40;;;22.58;;
41167;SDS011;26906;45.658;9.272;2023-02-28T20:20:56;31.20;;;21.95;;
41167;SDS011;26906;45.658;9.272;2023-02-28T20:23:23;34.63;;;22.08;;
41167;SDS011;26906;45.658;9.272;2023-02-28T20:25:49;29.25;;;21.48;;
41167;SDS011;26906;45.658;9.272;2023-02-28T20:28:22;34.00;;;22.90;;
41167;SDS011;26906;45.658;9.272;2023-02-28T20:30:47;33.85;;;23.73;;
41167;SDS011;26906;45.658;9.272;2023-02-28T20:33:15;44.05;;;26.55;;
41167;SDS011;26906;45.658;9.272;2023-02-28T20:35:42;41.00;;;25.63;;
41167;SDS011;26906;45.658;9.272;2023-02-28T20:38:08;33.92;;;24.45;;
41167;SDS011;26906;45.658;9.272;2023-02-28T20:40:34;42.15;;;27.63;;
41167;SDS011;26906;45.658;9.272;2023-02-28T20:42:59;54.85;;;33.75;;
41167;SDS011;26906;45.658;9.272;2023-02-28T20:45:26;55.78;;;38.60;;
41167;SDS011;26906;45.658;9.272;2023-02-28T20:47:52;60.90;;;41.38;;
41167;SDS011;26906;45.658;9.272;2023-02-28T20:50:18;51.80;;;36.55;;
41167;SDS011;26906;45.658;9.272;2023-02-28T20:52:44;42.30;;;29.10;;
41167;SDS011;26906;45.658;9.272;2023-02-28T20:55:10;38.15;;;26.77;;
41167;SDS011;26906;45.658;9.272;2023-02-28T20:57:36;34.80;;;25.15;;
41167;SDS011;26906;45.658;9.272;2023-02-28T21:00:03;34.22;;;23.50;;
41167;SDS011;26906;45.658;9.272;2023-02-28T21:02:33;34.20;;;19.38;;
41167;SDS011;26906;45.658;9.272;2023-02-28T21:05:02;32.13;;;22.42;;
41167;SDS011;26906;45.658;9.272;2023-02-28T21:07:28;35.88;;;22.02;;
41167;SDS011;26906;45.658;9.272;2023-02-28T21:09:54;33.45;;;24.10;;
41167;SDS011;26906;45.658;9.272;2023-02-28T21:12:20;32.83;;;24.05;;
41167;SDS011;26906;45.658;9.272;2023-02-28T21:14:46;33.80;;;23.67;;
41167;SDS011;26906;45.658;9.272;2023-02-28T21:17:12;39.80;;;27.15;;
41167;SDS011;26906;45.658;9.272;2023-02-28T21:19:38;44.95;;;28.60;;
41167;SDS011;26906;45.658;9.272;2023-02-28T21:22:07;39.85;;;27.17;;
41167;SDS011;26906;45.658;9.272;2023-02-28T21:24:32;40.83;;;27.33;;
41167;SDS011;26906;45.658;9.272;2023-02-28T21:26:58;38.47;;;26.92;;
41167;SDS011;26906;45.658;9.272;2023-02-28T21:29:26;45.33;;;28.98;;
41167;SDS011;26906;45.658;9.272;2023-02-28T21:31:55;44.60;;;27.58;;
41167;SDS011;26906;45.658;9.272;2023-02-28T21:34:21;37.28;;;25.45;;
41167;SDS011;26906;45.658;9.272;2023-02-28T21:36:47;35.70;;;23.52;;
41167;SDS011;26906;45.658;9.272;2023-02-28T21:39:14;40.97;;;27.30;;
41167;SDS011;26906;45.658;9.272;2023-02-28T21:41:41;45.45;;;28.63;;
41167;SDS011;26906;45.658;9.272;2023-02-28T21:44:08;41.33;;;28.15;;
41167;SDS011;26906;45.658;9.272;2023-02-28T21:46:43;40.08;;;27.42;;
